Time;durP1;ratioP1;P1;durP2;ratioP2;P2;SDS_P1;SDS_P2;PMS_P1;PMS_P2;Temp;Humidity;BMP_temperature;BMP_pressure;BME280_temperature;BME280_humidity;BME280_pressure;Samples;Min_cycle;Max_cycle;Signal;HPM_P1;HPM_P2
2023/05/30 00:01:54;;;;;;;9.82;3.88;;;15.00;99.90;;;13.96;100.00;98064.50;5012177;28;20082;-73
2023/05/30 00:04:21;;;;;;;9.45;3.60;;;15.00;99.90;;;13.94;100.00;98068.09;5008517;28;20050;-76
2023/05/30 00:06:49;;;;;;;7.72;3.35;;;14.90;99.90;;;13.95;100.00;98065.41;5010929;28;20569;-75
2023/05/30 00:09:16;;;;;;;8.70;2.90;;;14.90;99.90;;;13.88;100.00;98068.38;5002436;28;20101;-74
2023/05/30 00:11:44;;;;;;;8.98;3.90;;;14.90;99.90;;;13.86;100.00;98068.47;4990940;28;20433;-74
2023/05/30 00:14:11;;;;;;;10.82;3.30;;;14.80;99.90;;;13.81;100.00;98073.06;5005480;28;20088;-74
2023/05/30 00:16:39;;;;;;;7.90;3.15;;;14.90;99.90;;;13.80;100.00;98072.22;5004055;28;20568;-74
2023/05/30 00:19:07;;;;;;;10.57;4.05;;;14.90;99.90;;;13.80;100.00;98071.38;4989143;28;20050;-74
2023/05/30 00:21:35;;;;;;;11.27;3.42;;;14.80;99.90;;;13.74;100.00;98077.72;4986802;28;20093;-74
2023/05/30 00:24:04;;;;;;;9.93;3.90;;;14.70;99.90;;;13.71;100.00;98079.66;5001213;28;20068;-74
2023/05/30 00:26:34;;;;;;;11.70;3.60;;;14.70;99.90;;;13.69;100.00;98078.88;5003094;28;20097;-74
2023/05/30 00:29:01;;;;;;;8.40;3.40;;;14.70;99.90;;;13.61;100.00;98076.59;5007832;28;20399;-74
2023/05/30 00:31:30;;;;;;;7.13;3.42;;;14.70;99.90;;;13.58;100.00;98074.97;5003661;28;20392;-75
2023/05/30 00:33:57;;;;;;;9.57;3.25;;;14.60;99.90;;;13.48;100.00;98075.47;5003689;28;20049;-74
2023/05/30 00:36:24;;;;;;;7.93;2.97;;;14.60;99.90;;;13.44;100.00;98077.41;4999851;28;20061;-74
2023/05/30 00:38:51;;;;;;;8.55;3.30;;;14.50;99.90;;;13.38;100.00;98083.72;5003730;28;20510;-74
2023/05/30 00:41:18;;;;;;;8.80;3.42;;;14.50;99.90;;;13.44;100.00;98076.56;4988922;28;20515;-75
2023/05/30 00:43:45;;;;;;;8.95;3.63;;;14.50;99.90;;;13.35;100.00;98076.06;5008128;28;20050;-74
2023/05/30 00:46:14;;;;;;;9.27;3.72;;;14.40;99.90;;;13.28;100.00;98072.03;4988230;28;20470;-74
2023/05/30 00:48:41;;;;;;;8.57;3.40;;;14.40;99.90;;;13.27;100.00;98074.66;5007509;28;20073;-76
2023/05/30 00:51:13;;;;;;;7.78;3.50;;;14.30;99.90;;;13.32;100.00;98071.00;5006172;28;20116;-74
2023/05/30 00:53:41;;;;;;;8.38;2.83;;;14.30;99.90;;;13.26;100.00;98066.00;5007047;28;20054;-73
2023/05/30 00:56:09;;;;;;;8.45;3.38;;;14.30;99.90;;;13.23;100.00;98068.78;5009072;28;20182;-74
2023/05/30 00:58:38;;;;;;;8.65;2.90;;;14.30;99.90;;;13.28;100.00;98068.59;4999171;28;20046;-74
2023/05/30 01:01:08;;;;;;;11.73;3.65;;;14.30;99.90;;;13.21;100.00;98065.38;4982750;28;20049;-78
2023/05/30 01:03:37;;;;;;;7.63;3.22;;;14.30;99.90;;;13.22;100.00;98063.63;5010439;28;20042;-76
2023/05/30 01:06:06;;;;;;;8.95;3.35;;;14.20;99.90;;;13.18;100.00;98053.34;5008510;28;20103;-75
2023/05/30 01:08:33;;;;;;;7.50;2.80;;;14.30;99.90;;;13.23;100.00;98067.91;5009270;28;20622;-74
2023/05/30 01:11:28;;;;;;;10.43;3.58;;;14.20;99.90;;;13.06;100.00;98061.69;5000682;28;20061;-74
2023/05/30 01:14:12;;;;;;;7.68;3.20;;;14.20;99.90;;;13.07;100.00;98059.94;5004593;28;20078;-75
2023/05/30 01:17:09;;;;;;;8.80;3.30;;;14.10;99.90;;;13.04;100.00;98073.94;4981833;28;20073;-75
2023/05/30 01:20:05;;;;;;;7.93;3.67;;;14.10;99.90;;;12.94;100.00;98080.50;4998672;28;20428;-74
2023/05/30 01:22:49;;;;;;;9.82;3.58;;;14.00;99.90;;;12.89;100.00;98080.69;5015581;28;20085;-74
2023/05/30 01:25:32;;;;;;;10.00;3.80;;;14.00;99.90;;;12.83;100.00;98072.31;5006692;28;20046;-75
2023/05/30 01:28:09;;;;;;;;;;;13.90;99.90;;;12.81;100.00;98082.78;5008061;28;20140;-75
2023/05/30 01:30:42;;;;;;;10.55;3.63;;;13.80;99.90;;;12.76;100.00;98075.16;4988739;28;19979;-75
2023/05/30 01:33:12;;;;;;;7.10;3.47;;;13.80;99.90;;;12.73;100.00;98074.47;4996963;28;20086;-75
2023/05/30 01:35:47;;;;;;;7.68;3.40;;;13.80;99.90;;;12.71;100.00;98071.09;4984518;28;20182;-75
2023/05/30 01:38:15;;;;;;;12.63;3.30;;;13.80;99.90;;;12.67;100.00;98064.31;4988999;28;20053;-75
2023/05/30 01:40:49;;;;;;;9.25;4.03;;;13.70;99.90;;;12.59;100.00;98061.16;4996513;28;20041;-75
2023/05/30 01:43:58;;;;;;;7.63;3.13;;;13.70;99.90;;;12.47;100.00;98070.34;4990970;28;20419;-75
2023/05/30 01:46:45;;;;;;;15.43;3.70;;;13.60;99.90;;;12.44;100.00;98063.53;5007242;28;20537;-74
2023/05/30 01:49:55;;;;;;;10.45;3.10;;;13.50;99.90;;;12.45;100.00;98064.38;4992903;28;20076;-75
2023/05/30 01:52:32;;;;;;;9.15;3.47;;;13.50;99.90;;;12.39;100.00;98062.88;4992194;28;20167;-74
2023/05/30 01:55:05;;;;;;;8.27;2.83;;;13.40;99.90;;;12.42;100.00;98067.09;4996002;28;20052;-74
2023/05/30 01:57:40;;;;;;;10.25;3.05;;;13.40;99.90;;;12.34;100.00;98067.44;5015130;28;20108;-74
2023/05/30 02:00:08;;;;;;;7.95;3.55;;;13.40;99.90;;;12.37;100.00;98075.13;4991530;28;20054;-74
2023/05/30 02:02:36;;;;;;;8.05;3.40;;;13.40;99.90;;;12.26;100.00;98067.75;4990109;28;20057;-75
2023/05/30 02:05:03;;;;;;;11.48;3.67;;;13.40;99.90;;;12.28;100.00;98065.94;4998534;28;20050;-74
2023/05/30 02:07:31;;;;;;;6.82;2.67;;;13.30;99.90;;;12.24;100.00;98060.91;5010494;28;20136;-74
2023/05/30 02:09:58;;;;;;;7.43;3.50;;;13.30;99.90;;;12.25;100.00;98062.63;5011290;28;20132;-74
2023/05/30 02:12:25;;;;;;;11.48;3.40;;;13.30;99.90;;;12.20;100.00;98064.53;4994415;28;20133;-75
2023/05/30 02:14:54;;;;;;;11.98;3.53;;;13.30;99.90;;;12.23;100.00;98060.06;4982123;28;20054;-75
2023/05/30 02:17:22;;;;;;;8.32;3.30;;;13.20;99.90;;;12.17;100.00;98062.91;5010181;28;20081;-75
2023/05/30 02:19:50;;;;;;;11.25;3.75;;;13.30;99.90;;;12.01;100.00;98072.28;4981662;28;20048;-74
2023/05/30 02:22:17;;;;;;;5.95;2.80;;;13.20;99.90;;;11.94;100.00;98074.25;5013451;28;20088;-74
2023/05/30 02:24:45;;;;;;;8.20;3.25;;;13.20;99.90;;;11.91;100.00;98074.41;5010844;28;20141;-74
2023/05/30 02:27:12;;;;;;;9.48;3.08;;;13.10;99.90;;;11.90;100.00;98075.28;5012566;28;20129;-75
2023/05/30 02:29:41;;;;;;;10.00;3.42;;;13.00;99.90;;;11.83;100.00;98068.63;5006276;28;20069;-75
2023/05/30 02:32:08;;;;;;;9.20;3.15;;;13.00;99.90;;;11.87;100.00;98073.66;5016750;28;20885;-75
2023/05/30 02:34:35;;;;;;;10.00;3.15;;;12.90;99.90;;;11.78;100.00;98075.75;5012515;28;20072;-75
2023/05/30 02:37:03;;;;;;;8.40;3.50;;;12.90;99.90;;;11.69;100.00;98072.59;5004082;28;20542;-75
2023/05/30 02:39:32;;;;;;;7.53;2.78;;;12.90;99.90;;;11.55;100.00;98076.66;5006905;28;20263;-75
2023/05/30 02:42:00;;;;;;;7.38;3.05;;;12.80;99.90;;;11.65;100.00;98080.56;5006347;28;20117;-75
2023/05/30 02:44:27;;;;;;;9.63;3.42;;;12.70;99.90;;;11.63;100.00;98074.59;5008690;28;20053;-76
2023/05/30 02:46:54;;;;;;;11.63;3.53;;;12.70;99.90;;;11.66;100.00;98074.50;4994043;28;20099;-75
2023/05/30 02:49:21;;;;;;;8.18;3.35;;;12.70;99.90;;;11.63;100.00;98072.88;5008377;28;20053;-75
2023/05/30 02:51:49;;;;;;;9.32;3.10;;;12.70;99.90;;;11.52;100.00;98078.47;5006089;28;20042;-75
2023/05/30 02:54:16;;;;;;;8.95;3.15;;;12.70;99.90;;;11.58;100.00;98076.53;5002511;28;20042;-74
2023/05/30 02:56:43;;;;;;;9.18;2.70;;;12.70;99.90;;;11.50;100.00;98076.84;4987619;28;20048;-74
2023/05/30 02:59:10;;;;;;;9.02;3.10;;;12.60;99.90;;;11.50;100.00;98074.22;4972877;28;20050;-74
2023/05/30 03:01:37;;;;;;;7.75;3.28;;;12.60;99.90;;;11.48;100.00;98076.88;5006944;28;20459;-74
2023/05/30 03:04:05;;;;;;;9.73;3.15;;;12.60;99.90;;;11.52;100.00;98082.81;5011890;28;20595;-76
2023/05/30 03:06:32;;;;;;;9.23;3.08;;;12.60;99.90;;;11.50;100.00;98076.84;5007140;28;20749;-74
2023/05/30 03:09:00;;;;;;;8.75;2.63;;;12.60;99.90;;;11.38;100.00;98077.28;5008813;28;20089;-76
2023/05/30 03:11:27;;;;;;;6.90;2.53;;;12.50;99.90;;;11.41;100.00;98078.03;4997605;28;20057;-74
2023/05/30 03:13:54;;;;;;;9.48;2.88;;;12.50;99.90;;;11.39;100.00;98076.41;4988945;28;20054;-74
2023/05/30 03:16:21;;;;;;;9.45;3.30;;;12.40;99.90;;;11.44;100.00;98079.66;5003426;28;21169;-74
2023/05/30 03:18:49;;;;;;;13.57;3.13;;;12.50;99.90;;;11.47;100.00;98083.00;4998349;28;20038;-75
2023/05/30 03:21:16;;;;;;;9.77;3.00;;;12.50;99.90;;;11.39;100.00;98084.19;5009357;28;20049;-75
2023/05/30 03:23:43;;;;;;;14.30;3.00;;;12.50;99.90;;;11.40;100.00;98083.28;5005791;28;20050;-74
2023/05/30 03:26:11;;;;;;;11.60;3.08;;;12.50;99.90;;;11.36;100.00;98087.75;4991141;28;20522;-74
2023/05/30 03:28:38;;;;;;;10.13;3.10;;;12.40;99.90;;;11.34;100.00;98086.97;5006751;28;20081;-75
2023/05/30 03:31:05;;;;;;;7.70;2.80;;;12.40;99.90;;;11.40;100.00;98086.72;4987692;28;20064;-74
2023/05/30 03:33:33;;;;;;;11.02;3.47;;;12.40;99.90;;;11.35;100.00;98086.03;5006561;28;20049;-74
2023/05/30 03:36:00;;;;;;;7.90;3.30;;;12.40;99.90;;;11.34;100.00;98084.38;4974157;28;20822;-76
2023/05/30 03:38:27;;;;;;;12.45;3.20;;;12.40;99.90;;;11.32;100.00;98086.16;5007954;28;20053;-74
2023/05/30 03:40:54;;;;;;;12.77;3.25;;;12.30;99.90;;;11.23;100.00;98083.91;5010805;28;20501;-75
2023/05/30 03:43:22;;;;;;;9.25;2.90;;;12.30;99.90;;;11.35;100.00;98083.44;4981203;28;20054;-74
2023/05/30 03:45:49;;;;;;;11.65;3.28;;;12.40;99.90;;;11.33;100.00;98085.25;4992485;28;20140;-74
2023/05/30 03:48:16;;;;;;;8.35;2.75;;;12.30;99.90;;;11.29;100.00;98079.34;5008391;28;20147;-74
2023/05/30 03:50:43;;;;;;;10.63;3.00;;;12.30;99.90;;;11.25;100.00;98082.09;4994923;28;20068;-75
2023/05/30 03:53:10;;;;;;;12.20;2.97;;;12.30;99.90;;;11.23;100.00;98082.16;5008644;28;20506;-73
2023/05/30 03:55:38;;;;;;;8.80;2.90;;;12.30;99.90;;;11.30;100.00;98078.41;4989825;28;20055;-74
2023/05/30 03:58:05;;;;;;;7.35;2.58;;;12.30;99.90;;;11.27;100.00;98070.75;4969719;28;20713;-74
2023/05/30 04:00:32;;;;;;;10.10;3.10;;;12.30;99.90;;;11.24;100.00;98073.47;4984949;28;20073;-75
2023/05/30 04:03:00;;;;;;;7.00;2.58;;;12.30;99.90;;;11.20;100.00;98082.28;5003989;28;20061;-75
2023/05/30 04:05:27;;;;;;;9.93;3.13;;;12.40;99.90;;;11.23;100.00;98081.31;4993073;28;20046;-74
2023/05/30 04:07:54;;;;;;;7.78;3.03;;;12.30;99.90;;;11.17;100.00;98084.13;5009698;28;20046;-74
2023/05/30 04:10:21;;;;;;;11.45;2.72;;;12.30;99.90;;;11.18;100.00;98078.88;5008054;28;20120;-76
2023/05/30 04:12:49;;;;;;;9.27;2.72;;;12.30;99.90;;;11.30;100.00;98078.41;5006376;28;20045;-75
2023/05/30 04:15:16;;;;;;;9.35;2.63;;;12.30;99.90;;;11.33;100.00;98087.84;4996501;28;20049;-74
2023/05/30 04:17:43;;;;;;;10.13;3.70;;;12.30;99.90;;;11.32;100.00;98087.94;5003454;28;20050;-74
2023/05/30 04:20:12;;;;;;;9.70;2.88;;;12.30;99.90;;;11.33;100.00;98085.25;5009421;28;20085;-74
2023/05/30 04:22:39;;;;;;;7.78;2.88;;;12.30;99.90;;;11.36;100.00;98089.47;5005545;28;20061;-75
2023/05/30 04:25:08;;;;;;;10.65;3.10;;;12.40;99.90;;;11.37;100.00;98099.84;4988127;28;20729;-75
2023/05/30 04:27:35;;;;;;;7.78;3.15;;;12.40;99.90;;;11.37;100.00;98093.78;5007173;28;20049;-75
2023/05/30 04:30:04;;;;;;;8.73;2.45;;;12.40;99.90;;;11.46;100.00;98089.09;5011281;28;20054;-75
2023/05/30 04:32:33;;;;;;;8.48;2.90;;;12.40;99.90;;;11.39;100.00;98100.63;4996086;28;20129;-74
2023/05/30 04:35:07;;;;;;;8.63;2.92;;;12.40;99.90;;;11.41;100.00;98098.81;4992523;28;20262;-74
2023/05/30 04:37:38;;;;;;;8.20;2.80;;;12.40;99.90;;;11.41;100.00;98100.56;5009217;28;20041;-74
2023/05/30 04:40:08;;;;;;;10.80;2.65;;;12.40;99.90;;;11.45;100.00;98108.19;4998654;28;20046;-74
2023/05/30 04:42:36;;;;;;;10.18;3.17;;;12.50;99.90;;;11.54;100.00;98108.75;5007526;28;20077;-74
2023/05/30 04:45:04;;;;;;;7.85;2.45;;;12.50;99.90;;;11.63;100.00;98111.88;4996339;28;20429;-74
2023/05/30 04:47:31;;;;;;;7.18;2.75;;;12.60;99.90;;;11.66;100.00;98103.09;5001099;28;20148;-74
2023/05/30 04:50:02;;;;;;;9.43;2.60;;;12.60;99.90;;;11.72;100.00;98103.72;4998913;28;20049;-77
2023/05/30 04:52:30;;;;;;;5.97;2.40;;;12.60;99.90;;;11.83;100.00;98103.25;4974528;28;20050;-74
2023/05/30 04:54:57;;;;;;;12.65;3.03;;;12.70;99.90;;;11.92;100.00;98102.09;4982433;28;20116;-74
2023/05/30 04:57:24;;;;;;;8.23;2.53;;;12.80;99.90;;;12.03;100.00;98107.72;4994573;28;20057;-74
2023/05/30 04:59:55;;;;;;;8.68;2.83;;;12.90;99.90;;;12.11;100.00;98110.88;4983063;28;20494;-75
2023/05/30 05:02:22;;;;;;;9.43;2.60;;;13.00;99.90;;;12.09;100.00;98106.66;5003186;28;20426;-74
2023/05/30 05:04:49;;;;;;;7.90;2.45;;;13.00;99.90;;;12.07;100.00;98103.25;5004573;28;20097;-74
2023/05/30 05:07:17;;;;;;;9.00;2.30;;;13.10;99.90;;;12.13;100.00;98111.66;5002790;28;20054;-74
2023/05/30 05:10:04;;;;;;;14.55;3.67;;;13.10;99.90;;;12.23;100.00;98109.53;5004492;28;20103;-74
2023/05/30 05:12:31;;;;;;;11.60;3.60;;;13.20;99.90;;;12.25;100.00;98107.72;4997082;28;20517;-74
2023/05/30 05:14:58;;;;;;;7.18;2.40;;;13.20;99.90;;;12.14;100.00;98113.34;4985457;28;20107;-75
2023/05/30 05:17:25;;;;;;;10.07;3.20;;;13.20;99.90;;;12.42;100.00;98109.59;5006686;28;20076;-74
2023/05/30 05:19:53;;;;;;;8.82;2.47;;;13.20;99.90;;;12.43;100.00;98123.47;4991459;28;20399;-75
2023/05/30 05:22:20;;;;;;;10.10;2.95;;;13.30;99.90;;;12.44;100.00;98120.81;4983401;28;20143;-75
2023/05/30 05:24:47;;;;;;;9.45;2.60;;;13.40;99.90;;;12.49;100.00;98124.06;5007707;28;20125;-73
2023/05/30 05:27:14;;;;;;;8.32;3.00;;;13.50;99.90;;;12.65;100.00;98120.81;4994553;28;20129;-74
2023/05/30 05:29:41;;;;;;;12.27;3.25;;;13.50;99.90;;;12.79;100.00;98120.22;4991924;28;20065;-75
2023/05/30 05:32:09;;;;;;;9.60;2.42;;;13.60;99.90;;;12.76;100.00;98121.22;5012271;28;20136;-75
2023/05/30 05:34:36;;;;;;;8.30;2.60;;;13.60;99.90;;;12.88;100.00;98127.66;4994747;28;20096;-75
2023/05/30 05:37:03;;;;;;;9.48;2.83;;;13.60;99.90;;;12.86;100.00;98122.50;4996667;28;20045;-75
2023/05/30 05:39:30;;;;;;;15.77;3.10;;;13.60;99.90;;;13.07;100.00;98117.25;5005413;28;20049;-76
2023/05/30 05:41:58;;;;;;;13.93;2.60;;;13.80;99.90;;;13.24;100.00;98116.53;5009076;28;20134;-75
2023/05/30 05:44:25;;;;;;;11.63;2.70;;;13.80;99.90;;;13.32;100.00;98115.31;4987818;28;20050;-75
2023/05/30 05:46:52;;;;;;;8.65;2.60;;;14.00;99.90;;;13.23;100.00;98122.66;4989155;28;20312;-74
2023/05/30 05:49:19;;;;;;;9.13;2.30;;;14.00;99.90;;;13.26;100.00;98118.16;5005755;28;20072;-75
2023/05/30 05:51:46;;;;;;;8.88;2.45;;;14.10;99.90;;;13.47;100.00;98120.75;4993378;28;20625;-75
2023/05/30 05:54:13;;;;;;;9.43;2.75;;;14.20;99.90;;;13.60;100.00;98120.09;5003545;28;20053;-75
2023/05/30 05:56:40;;;;;;;9.98;2.35;;;14.40;99.90;;;13.58;100.00;98126.31;5005880;28;20493;-75
2023/05/30 05:59:07;;;;;;;8.10;2.10;;;14.40;99.90;;;13.63;100.00;98120.88;4992711;28;20431;-75
2023/05/30 06:01:35;;;;;;;8.95;2.42;;;14.50;99.90;;;13.59;100.00;98114.94;4998513;28;20493;-75
2023/05/30 06:04:11;;;;;;;8.45;2.08;;;14.50;99.90;;;13.61;100.00;98115.72;5003354;28;20061;-75
2023/05/30 06:06:39;;;;;;;11.15;3.08;;;14.60;99.90;;;13.85;100.00;98113.75;5005312;28;20496;-75
2023/05/30 06:09:06;;;;;;;11.70;2.53;;;14.60;99.90;;;13.74;100.00;98118.63;4990002;28;20540;-75
2023/05/30 06:11:34;;;;;;;11.00;2.90;;;14.60;99.90;;;13.82;100.00;98126.91;5008352;28;20101;-74
2023/05/30 06:14:01;;;;;;;9.23;2.20;;;14.70;99.90;;;14.02;100.00;98118.16;5011599;28;20105;-75
2023/05/30 06:16:28;;;;;;;7.97;2.25;;;14.70;99.90;;;13.96;100.00;98124.53;5008989;28;20056;-76
2023/05/30 06:18:55;;;;;;;8.23;2.60;;;14.80;99.90;;;14.04;100.00;98118.94;5000294;28;20046;-75
2023/05/30 06:21:22;;;;;;;15.18;3.13;;;14.80;99.90;;;14.14;100.00;98124.53;4996693;28;20129;-75
2023/05/30 06:23:50;;;;;;;7.72;2.28;;;15.00;99.90;;;14.36;100.00;98117.34;5007214;28;20086;-76
2023/05/30 06:26:17;;;;;;;13.07;3.25;;;15.10;99.90;;;14.53;100.00;98118.28;4990002;28;20072;-76
2023/05/30 06:28:50;;;;;;;10.02;2.72;;;15.20;99.90;;;14.78;100.00;98125.75;5005332;28;20636;-75
2023/05/30 06:31:17;;;;;;;8.05;2.67;;;15.40;99.90;;;14.50;100.00;98123.66;5004933;28;20135;-75
2023/05/30 06:33:45;;;;;;;9.25;2.17;;;15.50;99.90;;;14.72;100.00;98116.47;4992815;28;20152;-75
2023/05/30 06:36:12;;;;;;;10.63;2.38;;;15.40;99.90;;;14.56;100.00;98124.25;5008489;28;20076;-75
2023/05/30 06:38:40;;;;;;;9.43;2.50;;;15.40;99.90;;;14.58;100.00;98121.56;4994388;28;20072;-76
2023/05/30 06:41:07;;;;;;;13.38;3.03;;;15.40;99.90;;;14.58;100.00;98129.41;5007656;28;20058;-75
2023/05/30 06:43:34;;;;;;;11.25;2.40;;;15.40;99.90;;;14.65;100.00;98130.78;4975484;28;20050;-75
2023/05/30 06:46:01;;;;;;;13.38;2.60;;;15.40;99.90;;;14.69;100.00;98134.06;4998395;28;20564;-75
2023/05/30 06:48:29;;;;;;;8.65;2.40;;;15.50;99.90;;;15.00;100.00;98131.59;5011581;28;20070;-75
2023/05/30 06:50:56;;;;;;;8.88;2.38;;;15.60;99.90;;;15.00;100.00;98134.19;5012179;28;20132;-75
2023/05/30 06:53:24;;;;;;;10.55;2.70;;;15.80;99.90;;;14.87;100.00;98127.94;4992349;28;20087;-75
2023/05/30 06:55:52;;;;;;;10.13;1.92;;;15.90;99.90;;;15.10;100.00;98136.34;5011232;28;20050;-74
2023/05/30 06:58:19;;;;;;;9.38;2.38;;;16.00;99.90;;;15.09;100.00;98132.88;4996271;28;20160;-75
2023/05/30 07:00:46;;;;;;;10.25;2.25;;;16.10;99.90;;;15.10;100.00;98128.50;5007158;28;20115;-75
2023/05/30 07:03:13;;;;;;;10.65;3.05;;;16.10;99.90;;;15.18;100.00;98139.41;5009570;28;20132;-77
2023/05/30 07:05:41;;;;;;;8.43;2.35;;;16.00;99.90;;;14.90;100.00;98138.22;4981802;28;20053;-75
2023/05/30 07:08:07;;;;;;;9.32;2.63;;;16.00;99.90;;;15.11;100.00;98131.03;5003488;28;20498;-75
2023/05/30 07:10:35;;;;;;;8.73;2.17;;;16.00;99.90;;;15.27;100.00;98126.69;5006083;28;20045;-74
2023/05/30 07:13:02;;;;;;;9.23;2.40;;;16.20;99.90;;;15.55;100.00;98127.81;5002566;28;20061;-75
2023/05/30 07:15:31;;;;;;;11.93;1.95;;;16.20;99.90;;;15.58;100.00;98126.84;4998544;28;20104;-75
2023/05/30 07:17:58;;;;;;;9.10;2.03;;;16.30;99.90;;;15.69;100.00;98127.06;4985353;28;20105;-75
2023/05/30 07:20:26;;;;;;;10.05;2.25;;;16.50;99.90;;;15.93;100.00;98134.56;4992843;28;20080;-75
2023/05/30 07:22:53;;;;;;;11.82;2.47;;;16.60;99.90;;;16.16;100.00;98134.09;5003379;28;20045;-76
2023/05/30 07:25:20;;;;;;;6.18;1.83;;;16.80;99.90;;;16.08;100.00;98131.94;5008384;28;20124;-75
2023/05/30 07:27:47;;;;;;;8.52;2.38;;;16.90;99.90;;;15.95;100.00;98120.44;4986825;28;20080;-77
2023/05/30 07:30:14;;;;;;;11.30;2.22;;;17.00;99.90;;;16.08;100.00;98128.47;4998372;28;20053;-76
2023/05/30 07:32:41;;;;;;;9.55;2.15;;;17.00;99.90;;;16.03;100.00;98125.25;4992972;28;20046;-76
2023/05/30 07:35:09;;;;;;;9.55;2.03;;;17.00;99.90;;;16.13;100.00;98121.19;5008959;28;20069;-75
2023/05/30 07:37:37;;;;;;;10.98;2.63;;;17.00;99.90;;;16.40;100.00;98129.25;4989863;28;20483;-75
2023/05/30 07:40:05;;;;;;;9.00;2.47;;;17.00;99.90;;;16.59;100.00;98133.44;4994501;28;20184;-76
2023/05/30 07:42:39;;;;;;;9.05;2.80;;;17.20;99.90;;;16.21;100.00;98137.31;4976870;28;20048;-75
2023/05/30 07:45:06;;;;;;;8.77;2.20;;;17.20;99.90;;;16.48;100.00;98134.88;4993020;28;20049;-76
2023/05/30 07:47:34;;;;;;;9.55;2.42;;;17.20;99.90;;;16.51;100.00;98132.09;4994155;28;20065;-76
2023/05/30 07:50:02;;;;;;;9.57;2.58;;;17.20;99.90;;;16.98;100.00;98126.81;5007951;28;20085;-76
2023/05/30 07:52:29;;;;;;;12.35;2.28;;;17.50;99.90;;;16.76;100.00;98122.78;5006384;28;20145;-76
2023/05/30 07:54:56;;;;;;;7.55;1.90;;;17.50;99.90;;;16.58;100.00;98129.09;5007602;28;20120;-76
2023/05/30 07:57:23;;;;;;;9.00;2.25;;;17.60;99.90;;;16.84;100.00;98131.09;5004588;28;20473;-76
2023/05/30 07:59:50;;;;;;;8.35;2.13;;;17.60;99.90;;;16.75;100.00;98130.75;4988937;28;20188;-74
2023/05/30 08:02:18;;;;;;;11.98;2.33;;;17.80;99.90;;;16.39;100.00;98131.97;4988353;28;20050;-77
2023/05/30 08:04:45;;;;;;;12.90;3.10;;;17.70;99.90;;;16.61;100.00;98121.94;5004538;28;20064;-75
2023/05/30 08:07:12;;;;;;;12.60;2.67;;;17.70;99.90;;;17.24;100.00;98127.84;5008098;28;20042;-76
2023/05/30 08:09:40;;;;;;;12.20;2.78;;;17.90;99.90;;;17.63;100.00;98123.69;5005006;28;20104;-76
2023/05/30 08:12:16;;;;;;;8.13;2.53;;;18.20;99.90;;;17.67;100.00;98127.81;5004193;28;20061;-76
2023/05/30 08:14:43;;;;;;;8.43;2.17;;;18.50;99.90;;;17.87;100.00;98122.19;4990509;28;20418;-75
2023/05/30 08:17:11;;;;;;;8.73;2.42;;;18.60;99.90;;;17.63;100.00;98126.31;5007995;28;20477;-76
2023/05/30 08:19:40;;;;;;;7.18;2.05;;;18.70;99.90;;;17.55;100.00;98127.66;5002695;28;20128;-76
2023/05/30 08:22:10;;;;;;;9.23;2.58;;;18.70;99.90;;;17.70;100.00;98127.66;4989670;28;20398;-76
2023/05/30 08:24:37;;;;;;;10.80;2.22;;;18.50;99.90;;;17.89;100.00;98125.56;4986096;28;20093;-76
2023/05/30 08:27:06;;;;;;;9.05;2.45;;;18.60;99.90;;;18.30;100.00;98122.03;5002172;28;20093;-78
2023/05/30 08:29:33;;;;;;;9.43;2.55;;;18.80;99.90;;;17.76;100.00;98129.88;4990730;28;20042;-76
2023/05/30 08:32:00;;;;;;;8.93;2.55;;;18.90;99.40;;;17.73;100.00;98120.41;4992276;28;20149;-76
2023/05/30 08:34:28;;;;;;;7.32;2.00;;;18.80;99.40;;;17.93;100.00;98124.44;5004586;28;20046;-76
2023/05/30 08:36:56;;;;;;;16.30;2.42;;;18.70;99.80;;;18.16;100.00;98122.94;4988651;28;20128;-77
2023/05/30 08:39:23;;;;;;;10.00;2.65;;;18.80;99.80;;;18.50;100.00;98118.13;5003551;28;20049;-77
2023/05/30 08:41:50;;;;;;;10.00;2.70;;;19.00;99.50;;;18.69;100.00;98120.34;4988937;28;20053;-78
2023/05/30 08:44:17;;;;;;;8.65;2.67;;;19.20;99.10;;;18.58;100.00;98118.44;4986509;28;20085;-78
2023/05/30 08:46:45;;;;;;;11.48;3.00;;;19.30;98.50;;;19.84;100.00;98103.69;4990624;28;20081;-78
2023/05/30 08:49:18;;;;;;;7.50;1.83;;;19.60;99.20;;;20.21;100.00;98108.94;4992660;28;20051;-77
2023/05/30 08:51:45;;;;;;;9.75;2.15;;;20.10;98.50;;;19.70;100.00;98111.72;5005553;28;20069;-77
2023/05/30 08:54:22;;;;;;;9.07;2.50;;;20.50;97.40;;;20.57;100.00;98108.03;5002963;28;20110;-78
2023/05/30 08:57:01;;;;;;;8.18;1.95;;;20.90;97.00;;;21.04;100.00;98108.00;5005634;28;20462;-77
2023/05/30 08:59:30;;;;;;;8.27;2.03;;;21.50;96.70;;;20.55;100.00;98103.75;4992926;28;20057;-76
2023/05/30 09:01:58;;;;;;;9.50;2.55;;;21.90;95.10;;;20.68;100.00;98100.13;5009229;28;20391;-74
2023/05/30 09:04:26;;;;;;;10.80;1.92;;;22.30;94.60;;;21.22;100.00;98097.81;4980468;28;20430;-75
2023/05/30 09:06:57;;;;;;;9.77;2.38;;;22.30;93.90;;;21.84;100.00;98091.19;4989341;28;20046;-76
2023/05/30 09:09:24;;;;;;;10.25;2.47;;;22.70;93.70;;;20.19;100.00;98102.94;5002594;28;20737;-74
2023/05/30 09:11:53;;;;;;;9.80;2.20;;;22.70;92.40;;;20.46;100.00;98107.97;4994104;28;20128;-76
2023/05/30 09:14:20;;;;;;;9.45;2.05;;;22.50;92.90;;;20.47;100.00;98112.25;4990427;28;20493;-74
2023/05/30 09:16:47;;;;;;;12.32;2.22;;;22.50;92.50;;;20.65;100.00;98104.81;5001669;28;20057;-75
2023/05/30 09:19:14;;;;;;;8.55;1.95;;;22.50;92.50;;;20.79;100.00;98094.03;5004676;28;20045;-77
2023/05/30 09:21:42;;;;;;;12.40;1.98;;;22.80;92.30;;;20.61;100.00;98108.63;4973572;28;20124;-75
2023/05/30 09:24:09;;;;;;;12.45;2.13;;;22.90;91.60;;;21.17;100.00;98097.34;4986836;28;20109;-74
2023/05/30 09:26:36;;;;;;;6.05;1.98;;;23.20;91.30;;;20.97;100.00;98109.44;4997152;28;20046;-72
2023/05/30 09:29:12;;;;;;;6.15;2.05;;;23.10;91.50;;;21.04;100.00;98106.19;4978623;28;20487;-73
2023/05/30 09:31:41;;;;;;;6.10;1.90;;;23.10;90.50;;;21.16;100.00;98104.41;4999456;28;20058;-74
2023/05/30 09:34:08;;;;;;;11.10;2.17;;;23.10;90.90;;;21.41;100.00;98103.34;4998144;28;20165;-72
2023/05/30 09:36:35;;;;;;;9.52;2.42;;;23.20;90.50;;;21.06;100.00;98101.63;4996558;28;20128;-74
2023/05/30 09:39:06;;;;;;;8.82;1.80;;;23.40;90.00;;;21.76;100.00;98109.44;5000405;28;20141;-74
2023/05/30 09:41:34;;;;;;;7.53;1.88;;;23.50;90.50;;;21.17;100.00;98107.91;4998094;28;20053;-76
2023/05/30 09:44:04;;;;;;;9.02;1.90;;;23.50;89.40;;;21.33;100.00;98102.28;4988111;28;20101;-73
2023/05/30 09:46:32;;;;;;;11.45;1.92;;;23.40;88.80;;;22.12;100.00;98106.50;5003773;28;20046;-73
2023/05/30 09:48:59;;;;;;;7.70;2.03;;;23.50;89.60;;;21.99;100.00;98107.63;5003383;28;20050;-73
2023/05/30 09:51:29;;;;;;;7.80;1.90;;;23.90;89.40;;;21.84;100.00;98107.88;4986129;28;20042;-74
2023/05/30 09:54:03;;;;;;;10.10;2.30;;;23.90;88.10;;;21.76;99.87;98112.09;5004699;28;20307;-73
2023/05/30 09:56:38;;;;;;;7.45;1.95;;;23.90;86.30;;;22.16;99.76;98112.38;4987720;28;20045;-74
2023/05/30 09:59:11;;;;;;;7.10;1.70;;;23.70;87.00;;;22.39;99.19;98107.03;4993372;28;20062;-74
2023/05/30 10:01:39;;;;;;;9.32;2.20;;;24.00;86.30;;;22.18;97.88;98101.66;4992800;28;20068;-75
2023/05/30 10:04:17;;;;;;;12.80;2.33;;;24.10;85.80;;;22.56;98.02;98098.53;5007130;28;20146;-73
2023/05/30 10:06:51;;;;;;;8.02;2.30;;;24.20;85.60;;;21.63;98.04;98114.88;5009941;28;20447;-73
2023/05/30 10:09:23;;;;;;;7.07;1.88;;;24.00;84.20;;;22.36;97.58;98107.28;4990951;28;20695;-74
2023/05/30 10:11:52;;;;;;;10.75;2.47;;;23.90;85.60;;;21.89;96.18;98102.22;4997222;28;20082;-73
2023/05/30 10:14:21;;;;;;;5.75;2.00;;;23.80;84.40;;;22.12;93.47;98100.34;5005296;28;20045;-73
2023/05/30 10:17:04;;;;;;;10.65;2.45;;;24.00;84.20;;;22.18;92.42;98091.94;5005085;28;20057;-74
2023/05/30 10:19:40;;;;;;;7.97;2.10;;;24.00;84.00;;;22.07;89.04;98103.38;4992001;28;20065;-72